Time;durP1;ratioP1;P1;durP2;ratioP2;P2;SDS_P1;SDS_P2;PMS_P1;PMS_P2;Temp;Humidity;BMP_temperature;BMP_pressure;BME280_temperature;BME280_humidity;BME280_pressure;Samples;Min_cycle;Max_cycle;Signal;HPM_P1;HPM_P2
2022/10/09 00:01:24;;;;;;;6.07;3.37;;;;;;;8.97;83.61;101342.33;1699815;84;20963;-74
2022/10/09 00:03:54;;;;;;;4.65;2.85;;;;;;;8.96;83.81;101345.84;1700142;84;21612;-74
2022/10/09 00:06:28;;;;;;;5.97;3.00;;;;;;;8.96;83.82;101344.53;1699660;84;21951;-72
2022/10/09 00:08:55;;;;;;;7.03;3.37;;;;;;;8.95;84.04;101344.95;1699707;84;21075;-73
2022/10/09 00:11:26;;;;;;;7.50;3.37;;;;;;;8.93;84.06;101350.67;1699960;84;21051;-74
2022/10/09 00:13:54;;;;;;;7.90;3.00;;;;;;;8.91;84.02;101354.60;1699966;84;21517;-75
2022/10/09 00:16:24;;;;;;;6.37;3.33;;;;;;;8.90;84.23;101352.03;1700424;84;21279;-75
2022/10/09 00:18:52;;;;;;;8.07;2.80;;;;;;;8.87;84.38;101350.77;1699952;84;21145;-75
2022/10/09 00:21:29;;;;;;;8.03;3.20;;;;;;;8.88;84.53;101353.80;1699767;84;21509;-74
2022/10/09 00:23:59;;;;;;;7.53;2.70;;;;;;;8.89;84.60;101362.05;1700337;84;21465;-74
2022/10/09 00:26:27;;;;;;;6.77;3.13;;;;;;;8.89;84.51;101359.43;1699921;84;21005;-74
2022/10/09 00:28:55;;;;;;;6.30;2.63;;;;;;;8.88;84.50;101361.19;1700297;84;21035;-75
2022/10/09 00:31:23;;;;;;;4.90;2.60;;;;;;;8.88;84.67;101361.64;1699916;84;21135;-73
2022/10/09 00:33:51;;;;;;;4.70;2.50;;;;;;;8.88;84.66;101362.94;1699869;84;21035;-74
2022/10/09 00:36:24;;;;;;;5.63;2.70;;;;;;;8.88;84.71;101364.25;1700280;84;21498;-74
2022/10/09 00:38:53;;;;;;;7.57;2.97;;;;;;;8.88;84.72;101367.72;1667941;85;21008;-74
2022/10/09 00:41:28;;;;;;;5.43;2.50;;;;;;;8.88;84.60;101368.17;1664013;85;21024;-74
2022/10/09 00:43:59;;;;;;;5.80;2.20;;;;;;;8.86;84.55;101372.55;1667923;85;21094;-74
2022/10/09 00:46:48;;;;;;;6.10;2.43;;;;;;;8.84;84.56;101368.67;1667700;85;21076;-74
2022/10/09 00:49:31;;;;;;;5.30;2.07;;;;;;;8.83;84.51;101375.22;1668017;85;21469;-73
2022/10/09 00:52:03;;;;;;;3.97;2.00;;;;;;;8.81;84.47;101373.05;1667881;85;21000;-74
2022/10/09 00:54:33;;;;;;;5.33;2.40;;;;;;;8.77;84.48;101376.16;1667815;85;21024;-74
2022/10/09 00:57:02;;;;;;;5.53;2.60;;;;;;;8.74;84.65;101368.38;1667943;85;21244;-75
2022/10/09 00:59:30;;;;;;;6.17;2.37;;;;;;;8.73;84.58;101370.58;1667914;85;21020;-74
2022/10/09 01:01:57;;;;;;;5.50;2.10;;;;;;;8.71;84.54;101379.73;1667780;85;21027;-74
2022/10/09 01:04:24;;;;;;;6.03;2.37;;;;;;;8.69;84.55;101376.71;1668195;85;21013;-74
2022/10/09 01:07:02;;;;;;;6.80;2.47;;;;;;;8.67;84.61;101371.94;1667922;85;21609;-74
2022/10/09 01:09:47;;;;;;;5.50;2.03;;;;;;;8.65;84.57;101377.20;1668121;85;21141;-74
2022/10/09 01:12:39;;;;;;;4.80;2.13;;;;;;;8.62;84.71;101372.02;1667772;85;21013;-74
2022/10/09 01:15:23;;;;;;;7.30;2.27;;;;;;;8.61;84.74;101370.72;1668012;85;21016;-74
2022/10/09 01:17:59;;;;;;;5.27;2.00;;;;;;;8.59;84.67;101383.83;1667481;85;20920;-74
2022/10/09 01:20:31;;;;;;;6.73;1.70;;;;;;;8.55;84.73;101381.27;1667584;85;21031;-74
2022/10/09 01:23:25;;;;;;;5.77;2.03;;;;;;;8.52;84.69;101382.61;1667840;85;21942;-74
2022/10/09 01:26:22;;;;;;;5.47;2.10;;;;;;;8.47;84.74;101383.52;1667776;85;21589;-74
2022/10/09 01:28:53;;;;;;;8.83;2.33;;;;;;;8.45;84.90;101390.53;1668052;85;21100;-74
2022/10/09 01:31:23;;;;;;;4.77;2.40;;;;;;;8.42;84.89;101392.30;1668172;85;21467;-75
2022/10/09 01:33:51;;;;;;;4.47;2.08;;;;;;;8.40;85.07;101391.03;1669303;84;21085;-75
2022/10/09 01:36:19;;;;;;;4.93;1.80;;;;;;;8.41;85.11;101395.80;1668053;85;21186;-75
2022/10/09 01:38:47;;;;;;;5.63;2.53;;;;;;;8.39;84.93;101399.73;1673633;84;21513;-74
2022/10/09 01:41:14;;;;;;;5.30;2.00;;;;;;;8.33;84.97;101392.39;1699903;84;21066;-75
2022/10/09 01:43:41;;;;;;;5.60;1.97;;;;;;;8.30;85.02;101402.42;1700229;84;21551;-75
2022/10/09 01:46:29;;;;;;;4.93;2.03;;;;;;;8.29;85.14;101403.32;1700188;84;21346;-76
2022/10/09 01:49:29;;;;;;;5.77;1.90;;;;;;;8.28;85.17;101402.87;1699849;84;21205;-75
2022/10/09 01:52:36;;;;;;;6.58;2.10;;;;;;;8.22;85.02;101401.20;1700334;84;21077;-75
2022/10/09 01:55:35;;;;;;;6.57;1.97;;;;;;;8.17;85.04;101398.22;1699964;84;21027;-75
2022/10/09 01:58:22;;;;;;;5.37;1.90;;;;;;;8.13;85.17;101409.59;1700037;84;21031;-75
2022/10/09 02:00:54;;;;;;;4.97;2.20;;;;;;;8.09;85.30;101419.19;1700220;84;21560;-76
2022/10/09 02:03:24;;;;;;;3.73;2.10;;;;;;;8.07;85.35;101424.89;1699861;84;21153;-75
2022/10/09 02:05:53;;;;;;;4.30;2.05;;;;;;;8.05;85.52;101422.27;1699931;84;21032;-74
2022/10/09 02:08:22;;;;;;;7.00;2.13;;;;;;;8.05;85.50;101422.72;1700167;84;21083;-75
2022/10/09 02:10:54;;;;;;;7.30;2.20;;;;;;;8.00;85.36;101427.13;1700268;84;20952;-75
2022/10/09 02:13:22;;;;;;;8.97;1.90;;;;;;;7.96;85.49;101424.98;1699919;84;21083;-76
2022/10/09 02:16:17;;;;;;;3.83;2.00;;;;;;;7.94;85.57;101425.44;1700109;84;21040;-75
2022/10/09 02:18:48;;;;;;;5.07;2.10;;;;;;;7.93;85.73;101426.33;1700135;84;21521;-74
2022/10/09 02:21:24;;;;;;;3.97;2.07;;;;;;;7.90;85.77;101428.97;1699900;84;21548;-75
2022/10/09 02:23:55;;;;;;;6.30;1.97;;;;;;;7.91;85.98;101438.52;1700309;84;21012;-75
2022/10/09 02:26:23;;;;;;;8.47;2.47;;;;;;;7.89;85.89;101438.11;1700102;84;21070;-75
2022/10/09 02:28:50;;;;;;;5.63;2.43;;;;;;;7.88;85.97;101442.91;1699972;84;21166;-75
2022/10/09 02:31:23;;;;;;;4.17;2.20;;;;;;;7.88;86.01;101446.38;1699833;84;21072;-75
2022/10/09 02:34:04;;;;;;;4.00;1.90;;;;;;;7.88;86.12;101445.52;1700134;84;21556;-75
2022/10/09 02:36:31;;;;;;;6.03;1.77;;;;;;;7.88;86.08;101442.91;1699903;84;21075;-74
2022/10/09 02:38:59;;;;;;;8.43;1.97;;;;;;;7.85;86.03;101445.55;1699611;84;21085;-75
2022/10/09 02:41:27;;;;;;;4.83;1.70;;;;;;;7.81;85.99;101448.20;1699517;84;21145;-76
2022/10/09 02:43:55;;;;;;;4.77;1.63;;;;;;;7.79;86.06;101447.78;1699672;84;21072;-75
2022/10/09 02:46:22;;;;;;;4.27;1.83;;;;;;;7.77;86.08;101453.45;1699566;84;21274;-75
2022/10/09 02:48:50;;;;;;;5.07;1.90;;;;;;;7.75;86.08;101451.28;1699667;84;21465;-74
2022/10/09 02:51:17;;;;;;;5.47;2.00;;;;;;;7.71;86.14;101454.37;1699484;84;21027;-75
2022/10/09 02:53:44;;;;;;;7.87;2.03;;;;;;;7.71;86.21;101460.03;1699780;84;21796;-75
2022/10/09 02:56:11;;;;;;;5.10;1.90;;;;;;;7.70;86.29;101464.80;1699504;84;21040;-75
2022/10/09 02:58:39;;;;;;;7.23;2.10;;;;;;;7.68;86.34;101467.89;1699562;84;21072;-75
2022/10/09 03:01:07;;;;;;;6.77;1.87;;;;;;;7.69;86.50;101465.69;1699501;84;21455;-75
2022/10/09 03:03:34;;;;;;;6.10;2.10;;;;;;;7.69;86.54;101475.69;1699548;84;21051;-74
2022/10/09 03:06:08;;;;;;;7.73;1.87;;;;;;;7.68;86.54;101479.19;1699516;84;21513;-74
2022/10/09 03:08:37;;;;;;;4.77;1.70;;;;;;;7.68;86.63;101479.19;1699443;84;21068;-75
2022/10/09 03:11:05;;;;;;;6.10;1.80;;;;;;;7.68;86.59;101478.33;1699683;84;21060;-75
2022/10/09 03:13:32;;;;;;;6.77;1.93;;;;;;;7.69;86.79;101480.91;1699470;84;21099;-75
2022/10/09 03:16:13;;;;;;;6.93;2.13;;;;;;;7.70;86.69;101483.07;1699548;84;21028;-75
2022/10/09 03:18:41;;;;;;;4.80;2.08;;;;;;;7.67;86.70;101482.66;1699734;84;21138;-75
2022/10/09 03:21:14;;;;;;;6.17;1.70;;;;;;;7.65;86.66;101483.12;1699371;84;21048;-75
2022/10/09 03:23:42;;;;;;;7.30;1.73;;;;;;;7.64;86.74;101490.51;1699736;84;21091;-75
2022/10/09 03:26:16;;;;;;;6.37;1.70;;;;;;;7.64;86.79;101493.12;1699399;84;21530;-75
2022/10/09 03:28:47;;;;;;;5.80;1.77;;;;;;;7.66;86.97;101492.67;1699635;84;21075;-75
2022/10/09 03:31:19;;;;;;;4.97;1.40;;;;;;;7.67;86.99;101498.31;1699489;84;22944;-74
2022/10/09 03:33:46;;;;;;;5.67;2.00;;;;;;;7.67;86.96;101500.92;1699719;84;21459;-75
2022/10/09 03:36:13;;;;;;;6.00;1.97;;;;;;;7.67;86.99;101499.61;1699530;84;21541;-74
2022/10/09 03:38:40;;;;;;;12.63;1.90;;;;;;;7.67;86.96;101504.83;1692046;84;21001;-74
2022/10/09 03:41:07;;;;;;;5.97;1.73;;;;;;;7.68;87.10;101508.34;1675790;85;21034;-74
2022/10/09 03:43:35;;;;;;;4.43;1.73;;;;;;;7.67;86.98;101507.44;1656027;86;21332;-75
2022/10/09 03:46:07;;;;;;;5.33;1.80;;;;;;;7.68;87.11;101509.20;1675699;85;21051;-75
2022/10/09 03:48:35;;;;;;;6.80;2.00;;;;;;;7.68;86.96;101522.24;1656050;86;21023;-75
2022/10/09 03:51:03;;;;;;;4.97;1.43;;;;;;;7.67;87.10;101516.58;1675787;85;21502;-74
2022/10/09 03:53:31;;;;;;;6.50;1.83;;;;;;;7.67;87.03;101521.80;1656152;86;21078;-75
2022/10/09 03:55:58;;;;;;;7.03;2.10;;;;;;;7.66;86.94;101517.91;1675678;85;22101;-74
2022/10/09 03:58:25;;;;;;;7.70;2.00;;;;;;;7.63;87.04;101514.87;1656278;86;21659;-75
2022/10/09 04:00:53;;;;;;;3.70;1.53;;;;;;;7.64;87.16;101523.56;1675603;85;21058;-74
2022/10/09 04:03:20;;;;;;;7.37;1.77;;;;;;;7.63;87.09;101530.53;1656352;86;21042;-75
2022/10/09 04:05:47;;;;;;;7.83;1.60;;;;;;;7.63;87.19;101529.67;1675636;85;21046;-75
2022/10/09 04:08:14;;;;;;;6.63;1.60;;;;;;;7.65;87.34;101526.59;1656382;86;21199;-75
2022/10/09 04:10:41;;;;;;;6.67;1.47;;;;;;;7.64;87.17;101532.70;1675562;85;21026;-75
2022/10/09 04:13:09;;;;;;;7.43;1.90;;;;;;;7.63;87.17;101539.67;1656016;86;21041;-75
2022/10/09 04:15:36;;;;;;;7.00;1.50;;;;;;;7.61;87.22;101533.59;1675728;85;21006;-75
2022/10/09 04:18:04;;;;;;;4.93;1.67;;;;;;;7.61;87.17;101551.85;1656071;86;21556;-74
2022/10/09 04:20:31;;;;;;;10.33;1.97;;;;;;;7.60;87.38;101543.61;1675587;85;21145;-75
2022/10/09 04:22:58;;;;;;;6.77;1.60;;;;;;;7.60;87.25;101548.37;1656101;86;21031;-75
2022/10/09 04:25:25;;;;;;;6.43;1.80;;;;;;;7.59;87.14;101541.85;1675869;85;21025;-75
2022/10/09 04:27:52;;;;;;;6.20;1.60;;;;;;;7.55;87.13;101547.98;1656008;86;21043;-75
2022/10/09 04:30:19;;;;;;;6.03;1.67;;;;;;;7.54;87.27;101546.26;1675691;85;21089;-73
2022/10/09 04:32:46;;;;;;;4.80;1.70;;;;;;;7.52;87.31;101555.39;1656294;86;21138;-76
2022/10/09 04:35:15;;;;;;;5.83;1.77;;;;;;;7.53;87.36;101556.25;1675859;85;21046;-75
2022/10/09 04:37:42;;;;;;;3.67;1.50;;;;;;;7.52;87.42;101553.22;1639982;86;21568;-74
2022/10/09 04:40:09;;;;;;;4.93;1.73;;;;;;;7.53;87.55;101554.50;1675705;85;21047;-75
2022/10/09 04:42:37;;;;;;;4.17;1.50;;;;;;;7.56;87.90;101556.23;1641932;86;21042;-75
2022/10/09 04:45:05;;;;;;;9.43;2.00;;;;;;;7.57;87.62;101558.84;1667984;85;21138;-75
2022/10/09 04:47:34;;;;;;;5.60;1.70;;;;;;;7.53;87.51;101553.20;1643905;86;21038;-75
2022/10/09 04:50:01;;;;;;;7.30;1.73;;;;;;;7.54;87.45;101554.09;1666115;85;21043;-75
2022/10/09 04:52:29;;;;;;;5.13;1.50;;;;;;;7.51;87.50;101558.88;1656409;86;21051;-76
2022/10/09 04:54:56;;;;;;;7.03;1.60;;;;;;;7.50;87.55;101555.83;1678542;85;21074;-75
2022/10/09 04:57:23;;;;;;;5.03;1.57;;;;;;;7.50;87.54;101560.18;1633819;86;22029;-73
2022/10/09 04:59:50;;;;;;;6.07;2.20;;;;;;;7.48;87.52;101565.42;1654967;85;21501;-75
2022/10/09 05:02:17;;;;;;;8.67;1.80;;;;;;;7.46;87.45;101561.09;1656160;86;22036;-73
2022/10/09 05:04:46;;;;;;;4.70;2.20;;;;;;;7.44;87.62;101562.83;1678498;85;21500;-75
2022/10/09 05:07:13;;;;;;;5.97;1.57;;;;;;;7.43;87.65;101564.98;1638086;86;21065;-76
2022/10/09 05:09:40;;;;;;;8.23;1.90;;;;;;;7.45;87.97;101561.95;1672001;85;21148;-75
2022/10/09 05:12:07;;;;;;;8.77;2.20;;;;;;;7.47;87.88;101564.11;1656276;86;21046;-75
2022/10/09 05:14:34;;;;;;;4.60;1.40;;;;;;;7.47;87.83;101568.03;1678518;85;21015;-75
2022/10/09 05:17:04;;;;;;;6.47;1.93;;;;;;;7.49;88.34;101565.84;1642949;86;21133;-75
2022/10/09 05:19:31;;;;;;;10.67;2.13;;;;;;;7.55;88.43;101573.63;1679811;85;21498;-75
2022/10/09 05:22:00;;;;;;;5.17;1.63;;;;;;;7.58;88.19;101577.97;1678394;85;22107;-75
2022/10/09 05:24:28;;;;;;;6.20;1.73;;;;;;;7.55;87.93;101578.84;1635706;86;21031;-74
2022/10/09 05:26:55;;;;;;;7.20;1.77;;;;;;;7.55;87.93;101592.34;1653265;85;21047;-75
2022/10/09 05:29:22;;;;;;;5.20;1.73;;;;;;;7.54;87.96;101586.26;1656322;86;21062;-75
2022/10/09 05:31:49;;;;;;;5.47;1.77;;;;;;;7.53;87.96;101587.55;1678633;85;21090;-75
2022/10/09 05:34:16;;;;;;;4.87;1.77;;;;;;;7.55;88.16;101587.12;1639880;86;21823;-75
2022/10/09 05:36:43;;;;;;;4.77;2.00;;;;;;;7.60;88.50;101593.19;1669910;85;21052;-74
2022/10/09 05:39:11;;;;;;;8.73;2.00;;;;;;;7.65;88.57;101601.86;1656246;86;21015;-75
2022/10/09 05:41:38;;;;;;;6.87;1.67;;;;;;;7.71;88.62;101598.34;1678151;85;21541;-74
2022/10/09 05:44:05;;;;;;;4.83;1.90;;;;;;;7.73;88.42;101607.90;1644541;86;21075;-74
2022/10/09 05:46:32;;;;;;;6.30;1.80;;;;;;;7.75;88.47;101607.87;1677168;85;21978;-74
2022/10/09 05:49:05;;;;;;;5.23;1.90;;;;;;;7.76;88.39;101614.81;1677982;85;21091;-74
2022/10/09 05:51:36;;;;;;;5.33;1.90;;;;;;;7.76;88.17;101617.02;1642344;86;21054;-74
2022/10/09 05:54:04;;;;;;;8.60;2.22;;;;;;;7.79;88.39;101608.30;1680237;85;21587;-75
2022/10/09 05:56:35;;;;;;;8.07;2.13;;;;;;;7.82;88.32;101612.19;1678369;85;22083;-74
2022/10/09 05:59:10;;;;;;;7.12;1.80;;;;;;;7.85;88.28;101615.22;1634801;86;22118;-72
2022/10/09 06:01:43;;;;;;;6.07;1.67;;;;;;;7.82;88.07;101613.05;1668633;85;21508;-74
2022/10/09 06:04:17;;;;;;;7.17;2.30;;;;;;;7.82;88.15;101618.27;1678708;85;21080;-75
2022/10/09 06:06:47;;;;;;;6.43;1.70;;;;;;;7.87;88.29;101625.19;1644486;86;21016;-75
2022/10/09 06:09:23;;;;;;;6.30;1.75;;;;;;;7.88;88.32;101630.42;1658662;84;21583;-72
2022/10/09 06:11:51;;;;;;;4.57;1.80;;;;;;;7.90;88.24;101630.39;1634634;86;21170;-70
2022/10/09 06:14:20;;;;;;;4.97;1.67;;;;;;;7.92;88.43;101630.81;1662971;84;21051;-72
2022/10/09 06:16:47;;;;;;;4.90;1.90;;;;;;;7.96;88.29;101635.59;1652731;86;21054;-71
2022/10/09 06:19:18;;;;;;;5.90;1.70;;;;;;;8.01;88.59;101639.91;1664226;85;21090;-75
2022/10/09 06:21:45;;;;;;;;;;;;;;;8.07;88.68;101640.30;1653112;86;21066;-73
2022/10/09 06:24:24;;;;;;;6.17;1.53;;;;;;;8.11;88.59;101642.00;1672772;84;21157;-73
2022/10/09 06:26:51;;;;;;;7.87;2.10;;;;;;;8.17;88.81;101642.40;1667851;84;22184;-75
2022/10/09 06:29:17;;;;;;;8.23;1.87;;;;;;;8.23;88.90;101645.86;1667793;84;21103;-75
2022/10/09 06:31:44;;;;;;;5.40;1.57;;;;;;;8.27;88.56;101655.83;1667846;84;20968;-73
2022/10/09 06:34:11;;;;;;;5.50;1.70;;;;;;;8.32;88.64;101657.11;1667858;84;21092;-72
2022/10/09 06:36:38;;;;;;;7.27;1.90;;;;;;;8.35;88.54;101661.00;1667957;84;21984;-72
2022/10/09 06:39:06;;;;;;;7.07;1.83;;;;;;;8.39;88.58;101660.98;1664093;84;21037;-73
2022/10/09 06:41:35;;;;;;;9.97;2.20;;;;;;;8.44;88.46;101663.56;1625873;86;21039;-73
2022/10/09 06:44:07;;;;;;;7.73;1.77;;;;;;;8.49;88.50;101665.70;1640716;86;21067;-71
2022/10/09 06:46:36;;;;;;;;;;;;;;;8.53;88.46;101668.70;1648787;85;21026;-72
2022/10/09 06:49:05;;;;;;;5.30;2.00;;;;;;;8.57;88.53;101663.90;1654895;84;21216;-73
2022/10/09 06:51:33;;;;;;;10.97;2.53;;;;;;;8.63;88.49;101670.38;1653773;85;21025;-73
2022/10/09 06:54:04;;;;;;;8.53;2.57;;;;;;;8.70;88.62;101673.79;1654629;84;21516;-72
2022/10/09 06:56:31;;;;;;;;;;;;;;;8.77;88.65;101673.31;1658664;85;22085;-72
2022/10/09 06:59:04;;;;;;;10.87;3.10;;;;;;;8.83;88.48;101682.40;1654044;84;20425;-71
2022/10/09 07:01:32;;;;;;;7.63;2.50;;;;;;;8.86;88.36;101683.23;1653975;84;21540;-71
2022/10/09 07:04:03;;;;;;;6.07;2.17;;;;;;;8.92;88.27;101688.42;1653979;84;21961;-72
2022/10/09 07:06:30;;;;;;;;;;;;;;;8.97;88.26;101690.97;1671891;85;21316;-74
2022/10/09 07:09:03;;;;;;;4.13;1.80;;;;;;;9.03;88.17;101690.91;1657421;84;20172;-74
2022/10/09 07:11:37;;;;;;;5.43;2.10;;;;;;;9.07;88.13;101693.07;1674599;84;21077;-72
2022/10/09 07:14:07;;;;;;;6.13;1.40;;;;;;;9.12;88.10;101699.13;1671631;85;21151;-72
2022/10/09 07:16:37;;;;;;;6.78;1.90;;;;;;;9.18;88.01;101699.50;1671860;85;21508;-72
2022/10/09 07:19:10;;;;;;;8.38;1.90;;;;;;;9.22;87.83;101698.58;1673394;84;21055;-72
2022/10/09 07:21:41;;;;;;;8.37;2.10;;;;;;;9.25;87.88;101700.70;1672541;85;21083;-72
2022/10/09 07:24:09;;;;;;;7.62;2.15;;;;;;;9.30;87.73;101703.28;1675195;85;21478;-72
2022/10/09 07:26:41;;;;;;;8.30;2.20;;;;;;;9.33;87.61;101708.48;1674652;84;21107;-73
2022/10/09 07:29:10;;;;;;;7.87;1.97;;;;;;;9.37;87.54;101711.51;1672292;84;21051;-72
2022/10/09 07:31:38;;;;;;;5.53;1.57;;;;;;;9.41;87.57;101708.41;1674368;84;20952;-72
2022/10/09 07:34:05;;;;;;;6.87;2.20;;;;;;;9.45;87.49;101718.83;1672968;85;21059;-71
2022/10/09 07:36:33;;;;;;;6.23;1.83;;;;;;;9.50;87.53;101716.14;1670641;84;21059;-71
2022/10/09 07:39:00;;;;;;;7.97;1.63;;;;;;;9.54;87.47;101715.23;1674495;84;21532;-72
2022/10/09 07:41:28;;;;;;;6.47;1.53;;;;;;;9.60;87.45;101720.39;1687585;84;21063;-71
2022/10/09 07:43:56;;;;;;;7.27;1.60;;;;;;;9.67;87.53;101720.75;1687758;84;21052;-72
2022/10/09 07:46:25;;;;;;;4.47;1.90;;;;;;;9.72;87.38;101717.61;1689181;84;21052;-72
2022/10/09 07:48:53;;;;;;;6.62;1.80;;;;;;;9.77;87.27;101720.19;1687706;84;21103;-73
2022/10/09 07:51:26;;;;;;;8.57;2.00;;;;;;;9.80;87.17;101721.45;1685897;84;21135;-72
2022/10/09 07:53:56;;;;;;;7.97;1.80;;;;;;;9.84;87.08;101725.78;1688858;84;21084;-71
2022/10/09 07:56:27;;;;;;;7.92;1.67;;;;;;;9.90;86.98;101730.93;1688656;84;21042;-71
2022/10/09 07:59:02;;;;;;;4.50;1.63;;;;;;;9.97;87.06;101726.02;1688375;84;21055;-72
2022/10/09 08:01:31;;;;;;;7.43;1.70;;;;;;;10.03;86.90;101729.00;1689085;84;21064;-71
2022/10/09 08:04:00;;;;;;;7.50;1.72;;;;;;;10.12;87.06;101728.03;1688840;84;21764;-71
2022/10/09 08:06:28;;;;;;;7.93;2.10;;;;;;;10.20;87.02;101729.66;1688735;84;21596;-72
2022/10/09 08:08:58;;;;;;;6.00;1.63;;;;;;;10.29;86.78;101731.30;1688829;84;21040;-72
2022/10/09 08:11:26;;;;;;;8.05;1.82;;;;;;;10.36;86.65;101742.55;1689114;84;20960;-71
2022/10/09 08:13:54;;;;;;;5.37;1.70;;;;;;;10.42;86.58;101730.23;1688625;84;21043;-72
2022/10/09 08:16:24;;;;;;;8.23;1.83;;;;;;;10.52;86.46;101736.19;1688882;84;21146;-72
2022/10/09 08:18:57;;;;;;;5.50;1.90;;;;;;;10.61;86.39;101740.42;1687084;84;21697;-71
2022/10/09 08:21:26;;;;;;;5.20;1.67;;;;;;;10.70;86.15;101739.84;1688905;84;21052;-72
2022/10/09 08:23:55;;;;;;;6.17;1.70;;;;;;;10.81;86.08;101736.16;1688394;84;21099;-72
2022/10/09 08:26:24;;;;;;;21.20;3.12;;;;;;;10.90;85.87;101739.96;1687286;84;21095;-73
2022/10/09 08:28:58;;;;;;;5.97;1.77;;;;;;;10.96;85.84;101738.54;1689277;84;21152;-72
2022/10/09 08:31:26;;;;;;;6.23;1.83;;;;;;;11.11;85.79;101738.28;1690170;84;21108;-77
2022/10/09 08:33:59;;;;;;;5.87;1.90;;;;;;;11.23;85.47;101745.52;1689842;84;21119;-71
2022/10/09 08:36:28;;;;;;;5.22;1.50;;;;;;;11.34;85.46;101742.24;1689862;84;21056;-72
2022/10/09 08:38:55;;;;;;;8.90;4.08;;;;;;;11.46;85.26;101734.13;1687004;84;21063;-70
2022/10/09 08:41:33;;;;;;;9.97;3.50;;;;;;;11.63;85.25;101742.98;1689314;84;21954;-71
2022/10/09 08:44:33;;;;;;;7.97;2.12;;;;;;;11.79;85.23;101737.83;1689395;84;22217;-71
2022/10/09 08:47:25;;;;;;;7.20;1.72;;;;;;;11.97;84.89;101730.06;1689490;84;21127;-71
2022/10/09 08:50:16;;;;;;;7.75;1.45;;;;;;;12.13;84.21;101735.82;1678668;84;21567;-71
2022/10/09 08:53:06;;;;;;;8.18;2.05;;;;;;;12.27;83.97;101739.00;1667983;84;21321;-69
2022/10/09 08:55:44;;;;;;;9.10;1.90;;;;;;;12.40;83.84;101742.69;1667178;84;21119;-70
2022/10/09 08:58:15;;;;;;;12.98;1.77;;;;;;;12.54;83.55;101740.59;1667707;84;21526;-72
2022/10/09 09:00:50;;;;;;;7.33;1.55;;;;;;;12.67;83.24;101741.17;1667373;84;21069;-70
2022/10/09 09:03:49;;;;;;;5.17;1.47;;;;;;;12.80;83.02;101740.39;1667775;84;21063;-74
2022/10/09 09:06:30;;;;;;;6.17;1.30;;;;;;;12.98;83.01;101740.41;1667569;84;21109;-70
2022/10/09 09:09:33;;;;;;;5.97;1.52;;;;;;;13.11;82.26;101739.19;1667497;84;21110;-74
2022/10/09 09:12:25;;;;;;;6.80;1.22;;;;;;;13.24;81.90;101736.61;1665321;84;21102;-70
2022/10/09 09:15:22;;;;;;;6.90;1.55;;;;;;;13.45;81.87;101737.84;1673545;84;21050;-70
2022/10/09 09:18:26;;;;;;;5.85;1.70;;;;;;;13.66;81.38;101742.09;1687482;84;21048;-71
2022/10/09 09:20:58;;;;;;;8.85;2.08;;;;;;;13.83;80.79;101735.45;1688812;84;21079;-71
2022/10/09 09:23:29;;;;;;;6.97;1.30;;;;;;;14.04;80.66;101731.75;1687300;84;21225;-72
2022/10/09 09:25:58;;;;;;;7.03;2.47;;;;;;;14.25;80.32;101732.88;1688281;84;21036;-70
2022/10/09 09:28:33;;;;;;;8.53;2.15;;;;;;;14.43;79.98;101736.23;1687723;84;21048;-71
2022/10/09 09:31:14;;;;;;;6.10;1.37;;;;;;;14.62;79.40;101731.27;1685945;84;21093;-71
2022/10/09 09:33:52;;;;;;;5.55;1.27;;;;;;;14.76;78.97;101730.81;1687928;84;21043;-71
2022/10/09 09:36:36;;;;;;;7.33;1.30;;;;;;;14.98;77.76;101730.10;1673817;84;21737;-70
2022/10/09 09:39:04;;;;;;;5.22;1.50;;;;;;;14.98;77.76;101730.10;1683649;84;21056;-70
2022/10/09 09:41:30;;;;;;;8.98;1.60;;;;;;;15.20;77.45;101732.87;1689630;84;21021;-71
2022/10/09 09:43:57;;;;;;;7.72;1.70;;;;;;;15.39;77.16;101732.16;1684621;84;21486;-71
2022/10/09 09:46:28;;;;;;;7.25;1.32;;;;;;;15.64;76.89;101733.05;1686219;84;21275;-71
2022/10/09 09:48:55;;;;;;;10.10;1.60;;;;;;;15.83;76.10;101734.98;1670791;84;21121;-71
2022/10/09 09:51:30;;;;;;;8.65;1.32;;;;;;;15.96;75.25;101739.78;1671556;84;21760;-71
2022/10/09 09:54:08;;;;;;;8.83;1.65;;;;;;;16.10;74.76;101726.03;1683472;84;21046;-70
2022/10/09 09:56:43;;;;;;;3.67;1.00;;;;;;;16.28;74.23;101734.11;1685009;84;21462;-71
2022/10/09 09:59:41;;;;;;;5.90;2.00;;;;;;;16.42;73.56;101733.56;1684148;84;21024;-71
2022/10/09 10:02:19;;;;;;;3.08;1.45;;;;;;;16.69;73.54;101724.11;1663955;84;21190;-70
2022/10/09 10:04:58;;;;;;;9.65;2.92;;;;;;;16.98;72.76;101726.88;1688086;84;20968;-70
2022/10/09 10:07:34;;;;;;;8.53;3.65;;;;;;;17.30;72.50;101728.14;1665699;84;22096;-70
2022/10/09 10:10:21;;;;;;;5.08;1.82;;;;;;;17.56;71.95;101727.43;1686356;84;21035;-70
2022/10/09 10:12:56;;;;;;;6.05;1.67;;;;;;;17.84;71.33;101725.73;1678093;84;21012;-70
2022/10/09 10:15:32;;;;;;;6.50;1.12;;;;;;;18.10;70.43;101725.00;1683186;84;21072;-69
2022/10/09 10:18:07;;;;;;;5.28;1.52;;;;;;;18.38;69.54;101721.41;1679151;84;21098;-70
2022/10/09 10:20:58;;;;;;;6.90;1.45;;;;;;;18.48;68.63;101721.36;1669873;84;21034;-71
2022/10/09 10:23:33;;;;;;;8.25;1.55;;;;;;;18.62;67.75;101722.45;1683621;84;20993;-70
2022/10/09 10:26:26;;;;;;;3.70;1.02;;;;;;;18.79;67.57;101713.66;1672813;84;21058;-72
2022/10/09 10:29:07;;;;;;;6.12;1.20;;;;;;;18.97;66.41;101719.85;1685340;84;21986;-70
2022/10/09 10:31:53;;;;;;;5.78;1.17;;;;;;;19.06;66.02;101718.04;1689264;84;21066;-69
2022/10/09 10:34:34;;;;;;;7.25;1.22;;;;;;;19.22;65.39;101722.09;1691168;84;21048;-71
2022/10/09 10:37:18;;;;;;;6.83;1.10;;;;;;;19.39;64.88;101715.41;1689274;84;21017;-71
2022/10/09 10:40:05;;;;;;;5.20;1.17;;;;;;;19.57;64.55;101718.43;1688802;84;21321;-71
2022/10/09 10:42:59;;;;;;;5.47;1.05;;;;;;;19.77;63.73;101717.38;1638196;86;21129;-73
2022/10/09 10:45:32;;;;;;;6.45;1.45;;;;;;;20.01;63.16;101709.00;1653342;86;21007;-68
2022/10/09 10:48:02;;;;;;;5.00;1.45;;;;;;;20.16;62.50;101715.25;1653456;86;21050;-69
2022/10/09 10:50:35;;;;;;;2.98;1.02;;;;;;;20.23;61.49;101715.27;1652983;86;22088;-68
2022/10/09 10:53:23;;;;;;;5.83;1.87;;;;;;;20.26;61.17;101710.66;1648220;86;21041;-69
2022/10/09 10:55:57;;;;;;;4.85;1.15;;;;;;;20.35;60.77;101716.41;1648560;86;21148;-70
2022/10/09 10:58:31;;;;;;;6.28;1.30;;;;;;;20.53;60.35;101713.14;1644565;86;21075;-70
2022/10/09 11:01:09;;;;;;;4.60;1.32;;;;;;;20.74;60.08;101719.92;1649624;86;21043;-71
2022/10/09 11:04:04;;;;;;;5.83;1.10;;;;;;;20.96;59.40;101708.84;1643508;86;21043;-75
2022/10/09 11:06:58;;;;;;;4.85;1.30;;;;;;;21.05;58.51;101708.77;1644204;86;21112;-77
2022/10/09 11:09:53;;;;;;;6.22;1.20;;;;;;;21.10;57.88;101709.34;1651577;86;21926;-76
2022/10/09 11:12:43;;;;;;;5.10;1.12;;;;;;;21.13;57.39;101699.83;1647919;86;21128;-78
2022/10/09 11:15:36;;;;;;;3.83;1.25;;;;;;;21.41;57.28;101703.02;1649177;86;21024;-74
2022/10/09 11:18:22;;;;;;;5.45;1.20;;;;;;;21.67;56.29;101705.41;1643242;86;20993;-73
2022/10/09 11:20:57;;;;;;;5.15;1.37;;;;;;;21.77;55.85;101703.00;1653821;86;21091;-73
2022/10/09 11:23:46;;;;;;;5.30;1.22;;;;;;;21.95;55.47;101696.95;1643763;86;21203;-71
2022/10/09 11:26:36;;;;;;;3.62;1.17;;;;;;;22.01;55.14;101701.44;1654025;86;21063;-72
2022/10/09 11:29:14;;;;;;;;;;;;;;;22.11;54.54;101698.16;1650262;86;21035;-75
2022/10/09 11:32:05;;;;;;;10.03;5.05;;;;;;;22.10;53.30;101694.64;1650077;86;20194;-80
2022/10/09 11:34:40;;;;;;;10.95;4.55;;;;;;;22.15;53.55;101697.87;1667308;86;21349;-79
2022/10/09 11:37:18;;;;;;;6.87;3.15;;;;;;;22.37;53.53;101692.01;1667900;86;21146;-81
2022/10/09 11:39:46;;;;;;;7.13;2.10;;;;;;;22.49;53.10;101689.84;1668100;86;21095;-81
2022/10/09 11:42:18;;;;;;;4.00;1.30;;;;;;;22.75;52.79;101685.03;1682327;84;21035;-79
2022/10/09 11:44:59;;;;;;;5.33;1.60;;;;;;;22.79;52.06;101681.21;1685184;85;21530;-78
2022/10/09 11:47:47;;;;;;;4.35;1.27;;;;;;;22.86;51.49;101682.48;1684933;85;21064;-79
2022/10/09 11:50:34;;;;;;;4.58;1.45;;;;;;;22.84;50.85;101679.94;1685320;84;21194;-76
2022/10/09 11:53:11;;;;;;;3.83;1.25;;;;;;;22.79;50.65;101678.05;1666694;84;21009;-79
2022/10/09 11:55:39;;;;;;;4.60;1.25;;;;;;;22.81;50.14;101678.81;1685409;85;21006;-76
2022/10/09 11:58:24;;;;;;;5.37;1.17;;;;;;;22.69;49.78;101668.94;1666788;85;21006;-78
2022/10/09 12:00:55;;;;;;;5.08;1.15;;;;;;;22.60;49.81;101668.23;1652692;85;21051;-79